Time;durP1;ratioP1;P1;durP2;ratioP2;P2;SDS_P1;SDS_P2;PMS_P1;PMS_P2;Temp;Humidity;BMP_temperature;BMP_pressure;BME280_temperature;BME280_humidity;BME280_pressure;Samples;Min_cycle;Max_cycle;Signal;HPM_P1;HPM_P2
2022/12/11 00:00:51;;;;;;;51.37;46.77;;;3.80;27.60;;;;;;5050505;28;20200;-74
2022/12/11 00:03:17;;;;;;;23.13;21.63;;;3.60;28.00;;;;;;5052580;28;20197;-73
2022/12/11 00:05:44;;;;;;;23.27;21.57;;;3.60;28.40;;;;;;5049988;28;20241;-74
2022/12/11 00:08:10;;;;;;;23.43;21.70;;;3.50;27.90;;;;;;5039871;28;20487;-74
2022/12/11 00:10:35;;;;;;;21.83;20.23;;;3.40;28.60;;;;;;5035135;28;20423;-74
2022/12/11 00:13:01;;;;;;;23.93;21.97;;;3.10;29.00;;;;;;5048798;28;20469;-75
2022/12/11 00:15:27;;;;;;;22.67;20.97;;;3.20;29.60;;;;;;5036884;28;20442;-74
2022/12/11 00:17:52;;;;;;;23.73;21.87;;;3.40;29.20;;;;;;5033841;28;20180;-74
2022/12/11 00:20:18;;;;;;;21.67;20.07;;;3.50;29.00;;;;;;5047707;28;20820;-73
2022/12/11 00:22:44;;;;;;;21.93;20.33;;;3.70;28.90;;;;;;5040014;28;20227;-74
2022/12/11 00:25:09;;;;;;;21.30;19.80;;;3.80;28.10;;;;;;5034699;28;20203;-74
2022/12/11 00:27:35;;;;;;;23.87;22.17;;;3.80;28.10;;;;;;5031317;28;20267;-74
2022/12/11 00:30:00;;;;;;;21.83;20.30;;;3.90;27.50;;;;;;5030039;28;20196;-73
2022/12/11 00:32:26;;;;;;;21.03;19.53;;;3.60;27.90;;;;;;5033187;28;20216;-73
2022/12/11 00:34:52;;;;;;;21.07;19.57;;;3.40;27.80;;;;;;5034540;28;20197;-74
2022/12/11 00:37:17;;;;;;;21.83;20.23;;;3.20;28.80;;;;;;5033994;28;20447;-74
2022/12/11 00:39:43;;;;;;;21.23;19.70;;;3.20;29.90;;;;;;5034299;28;20173;-74
2022/12/11 00:42:09;;;;;;;20.83;19.03;;;3.60;29.00;;;;;;5036111;28;20221;-74
2022/12/11 00:44:34;;;;;;;20.83;19.43;;;4.00;28.20;;;;;;5033427;28;20199;-74
2022/12/11 00:47:00;;;;;;;20.63;19.23;;;4.30;27.00;;;;;;5033727;28;20184;-75
2022/12/11 00:49:26;;;;;;;19.67;18.27;;;4.60;26.50;;;;;;5034176;28;20260;-74
2022/12/11 00:51:51;;;;;;;21.77;20.23;;;4.70;25.90;;;;;;5039622;28;20265;-73
2022/12/11 00:54:17;;;;;;;20.77;19.27;;;4.70;25.30;;;;;;5040680;28;20254;-73
2022/12/11 00:56:42;;;;;;;22.23;20.60;;;4.20;26.00;;;;;;5039436;28;20176;-72
2022/12/11 00:59:08;;;;;;;20.97;19.57;;;3.80;27.50;;;;;;5040357;28;20168;-72
2022/12/11 01:01:34;;;;;;;21.17;19.67;;;3.80;27.20;;;;;;5040040;28;20176;-73
2022/12/11 01:04:00;;;;;;;22.53;20.73;;;3.40;27.80;;;;;;5037289;28;20247;-73
2022/12/11 01:06:26;;;;;;;22.83;21.13;;;3.30;28.40;;;;;;5035821;28;20773;-74
2022/12/11 01:10:22;;;;;;;22.80;21.20;;;3.10;29.10;;;;;;5034992;28;20264;-73
2022/12/11 01:11:40;;;;;;;24.87;23.17;;;2.80;29.60;;;;;;5034570;28;20815;-73
2022/12/11 01:14:06;;;;;;;23.60;21.93;;;2.80;29.80;;;;;;5033377;28;20451;-73
2022/12/11 01:16:32;;;;;;;21.93;20.30;;;2.60;30.50;;;;;;5034693;28;20494;-73
2022/12/11 01:18:57;;;;;;;23.73;21.70;;;2.50;31.20;;;;;;5033418;28;20924;-74
2022/12/11 01:21:23;;;;;;;24.37;22.70;;;2.60;30.70;;;;;;5031756;28;20187;-74
2022/12/11 01:23:50;;;;;;;25.73;23.73;;;2.70;30.30;;;;;;5031732;28;20204;-73
2022/12/11 01:26:16;;;;;;;22.00;20.43;;;2.70;30.20;;;;;;5031967;28;20647;-74
2022/12/11 01:28:43;;;;;;;22.97;21.40;;;2.80;29.90;;;;;;5031563;28;20503;-74
2022/12/11 01:31:11;;;;;;;23.43;21.73;;;2.90;30.50;;;;;;5030916;28;20473;-74
2022/12/11 01:33:37;;;;;;;25.50;23.50;;;3.30;30.00;;;;;;5031101;28;20510;-73
2022/12/11 01:36:12;;;;;;;23.20;21.57;;;3.70;29.00;;;;;;5030261;28;20505;-73
2022/12/11 01:38:39;;;;;;;22.73;21.00;;;4.10;28.20;;;;;;5031376;28;20419;-74
2022/12/11 01:41:04;;;;;;;22.63;20.70;;;4.30;27.30;;;;;;5029571;28;20419;-74
2022/12/11 01:43:30;;;;;;;22.10;20.50;;;4.40;27.50;;;;;;5031579;28;20448;-74
2022/12/11 01:45:55;;;;;;;22.70;21.10;;;4.30;26.80;;;;;;5031092;28;20177;-73
2022/12/11 01:48:39;;;;;;;21.90;20.30;;;4.20;27.50;;;;;;5031439;28;20180;-73
2022/12/11 01:51:05;;;;;;;23.20;21.50;;;4.00;27.50;;;;;;5030415;28;20874;-73
2022/12/11 01:53:35;;;;;;;23.10;21.50;;;3.60;27.90;;;;;;5031772;28;20471;-74
2022/12/11 01:56:02;;;;;;;22.97;21.37;;;3.40;28.30;;;;;;5031592;28;20164;-74
2022/12/11 01:58:33;;;;;;;21.93;20.23;;;3.30;28.60;;;;;;5029576;28;20430;-74
2022/12/11 02:01:01;;;;;;;22.43;20.83;;;3.20;29.10;;;;;;5032115;28;20426;-74
2022/12/11 02:03:27;;;;;;;22.63;21.13;;;3.50;28.60;;;;;;5032118;28;20439;-74
2022/12/11 02:05:52;;;;;;;23.17;21.47;;;3.40;28.10;;;;;;5032090;28;20416;-75
2022/12/11 02:08:19;;;;;;;23.53;21.63;;;3.40;29.00;;;;;;5031388;28;20655;-74
2022/12/11 02:11:13;;;;;;;22.00;20.50;;;3.40;28.50;;;;;;5048811;28;20188;-74
2022/12/11 02:14:02;;;;;;;22.60;20.80;;;3.40;28.40;;;;;;5049088;28;20447;-75
2022/12/11 02:16:38;;;;;;;21.70;20.30;;;3.60;28.00;;;;;;5044477;28;20419;-73
2022/12/11 02:19:29;;;;;;;21.97;20.23;;;3.50;28.10;;;;;;5049522;28;20672;-74
2022/12/11 02:21:56;;;;;;;23.57;21.70;;;3.40;28.40;;;;;;5053051;28;20450;-75
2022/12/11 02:24:55;;;;;;;20.90;19.50;;;3.30;29.60;;;;;;5051705;28;20431;-74
2022/12/11 02:27:43;;;;;;;20.70;19.30;;;3.50;29.00;;;;;;5036088;28;20407;-73
2022/12/11 02:30:12;;;;;;;20.50;19.20;;;3.40;29.10;;;;;;5031537;28;20458;-73
2022/12/11 02:32:46;;;;;;;18.83;17.57;;;3.40;28.50;;;;;;5032665;28;20474;-74
2022/12/11 02:35:20;;;;;;;17.70;16.50;;;3.10;29.20;;;;;;5035592;28;20408;-73
2022/12/11 02:37:49;;;;;;;23.30;21.60;;;3.20;28.30;;;;;;5034342;28;20411;-73
2022/12/11 02:40:20;;;;;;;21.63;20.13;;;3.30;29.00;;;;;;5038212;28;20494;-74
2022/12/11 02:42:48;;;;;;;19.47;18.07;;;3.40;29.20;;;;;;5050706;28;20451;-73
2022/12/11 02:45:15;;;;;;;20.50;19.07;;;3.80;28.60;;;;;;5052416;28;20398;-73
2022/12/11 02:47:44;;;;;;;19.23;17.93;;;4.10;27.70;;;;;;5053435;28;20494;-74
2022/12/11 02:50:14;;;;;;;18.57;17.30;;;4.10;27.40;;;;;;5053082;28;20443;-73
2022/12/11 02:52:41;;;;;;;20.03;18.53;;;4.30;27.30;;;;;;5052728;28;20459;-75
2022/12/11 02:55:09;;;;;;;20.60;19.13;;;4.60;26.70;;;;;;5053555;28;20399;-74
2022/12/11 02:57:43;;;;;;;18.20;17.00;;;4.80;26.40;;;;;;5053852;28;20418;-74
2022/12/11 03:00:10;;;;;;;19.40;18.00;;;4.90;25.90;;;;;;5052952;28;20404;-74
2022/12/11 03:02:37;;;;;;;20.30;18.90;;;5.00;25.60;;;;;;5052851;28;20542;-75
2022/12/11 03:05:03;;;;;;;18.87;17.67;;;5.00;25.70;;;;;;5053596;28;20427;-74
2022/12/11 03:07:33;;;;;;;18.57;17.30;;;5.10;25.70;;;;;;5053086;28;20427;-73
2022/12/11 03:09:59;;;;;;;20.83;19.33;;;5.10;25.50;;;;;;5052757;28;20491;-73
2022/12/11 03:12:32;;;;;;;20.30;18.90;;;5.10;25.60;;;;;;5053964;28;20459;-74
2022/12/11 03:15:00;;;;;;;16.90;15.73;;;5.00;25.60;;;;;;5053669;28;20177;-73
2022/12/11 03:17:43;;;;;;;18.90;17.63;;;5.00;25.70;;;;;;5052117;28;20416;-74
2022/12/11 03:20:12;;;;;;;21.10;19.60;;;5.00;26.00;;;;;;5052104;28;20443;-73
2022/12/11 03:22:55;;;;;;;21.90;20.30;;;5.00;25.80;;;;;;5051628;28;20426;-74
2022/12/11 03:25:28;;;;;;;20.40;19.00;;;5.00;25.90;;;;;;5053037;28;20403;-75
2022/12/11 03:28:08;;;;;;;22.17;20.57;;;5.00;26.00;;;;;;5050736;28;20431;-74
2022/12/11 03:30:36;;;;;;;21.93;20.50;;;4.70;26.60;;;;;;5042912;28;20435;-74
2022/12/11 03:33:15;;;;;;;20.77;19.33;;;4.70;27.30;;;;;;5039256;28;20505;-74
2022/12/11 03:35:50;;;;;;;21.90;20.30;;;4.80;26.30;;;;;;5037940;28;20925;-74
2022/12/11 03:38:22;;;;;;;20.00;18.70;;;4.90;26.20;;;;;;5036048;28;20491;-74
2022/12/11 03:40:53;;;;;;;19.77;18.47;;;4.90;26.10;;;;;;5031765;28;20469;-74
2022/12/11 03:43:21;;;;;;;21.17;19.77;;;5.00;25.60;;;;;;5032087;28;20948;-74
2022/12/11 03:45:49;;;;;;;21.47;20.00;;;4.80;25.60;;;;;;5033053;28;20418;-73
2022/12/11 03:48:17;;;;;;;20.83;19.53;;;4.60;26.90;;;;;;5033261;28;20921;-74
2022/12/11 03:50:44;;;;;;;21.17;19.77;;;4.50;26.40;;;;;;5036800;28;20418;-73
2022/12/11 03:53:11;;;;;;;20.73;19.33;;;4.30;27.50;;;;;;5041880;28;20495;-73
2022/12/11 03:55:38;;;;;;;20.30;18.90;;;4.10;27.80;;;;;;5036416;28;20430;-74
2022/12/11 03:58:04;;;;;;;20.63;19.00;;;4.00;28.20;;;;;;5035701;28;20419;-74
2022/12/11 04:00:30;;;;;;;18.83;17.53;;;3.60;28.60;;;;;;5034598;28;20488;-74
2022/12/11 04:03:14;;;;;;;20.67;19.10;;;3.50;29.30;;;;;;5034980;28;20682;-73
2022/12/11 04:05:51;;;;;;;20.00;18.70;;;3.40;29.40;;;;;;5038557;28;20176;-73
2022/12/11 04:08:19;;;;;;;19.03;17.73;;;3.30;29.70;;;;;;5053526;28;20426;-74
2022/12/11 04:10:45;;;;;;;19.37;18.13;;;3.20;29.20;;;;;;5052327;28;20480;-74
2022/12/11 04:13:11;;;;;;;18.20;17.00;;;3.20;29.40;;;;;;5054607;28;20474;-74
2022/12/11 04:15:38;;;;;;;20.57;19.20;;;3.30;29.20;;;;;;5052878;28;20402;-74
2022/12/11 04:26:20;;;;;;;20.57;18.97;;;3.40;27.80;;;;;;5053544;28;20405;-73
2022/12/11 04:28:47;;;;;;;20.73;19.03;;;3.40;27.50;;;;;;5053298;28;20757;-74
2022/12/11 04:31:22;;;;;;;21.17;19.77;;;3.40;27.80;;;;;;5053769;28;20637;-74
2022/12/11 04:33:48;;;;;;;19.40;18.20;;;3.30;27.80;;;;;;5051240;28;20434;-73
2022/12/11 04:36:14;;;;;;;19.87;18.47;;;3.20;27.90;;;;;;5052538;28;20986;-74
2022/12/11 04:38:39;;;;;;;19.20;17.93;;;2.90;28.50;;;;;;5053150;28;20407;-74
2022/12/11 04:41:08;;;;;;;20.83;19.13;;;2.90;28.70;;;;;;5052296;28;20410;-74
2022/12/11 04:43:34;;;;;;;20.33;19.03;;;2.80;28.80;;;;;;5053003;28;20662;-74
2022/12/11 04:46:08;;;;;;;20.90;19.40;;;2.70;28.90;;;;;;5053147;28;20524;-74
2022/12/11 04:48:35;;;;;;;20.67;19.23;;;2.60;29.30;;;;;;5053139;28;20179;-74
2022/12/11 04:51:01;;;;;;;20.63;19.33;;;2.60;29.30;;;;;;5052302;28;20414;-74
2022/12/11 04:53:27;;;;;;;29.90;21.87;;;2.70;29.50;;;;;;5053122;28;20498;-74
2022/12/11 04:55:54;;;;;;;21.10;19.60;;;2.60;29.70;;;;;;5052907;28;20199;-74
2022/12/11 04:58:19;;;;;;;21.17;19.77;;;2.60;29.40;;;;;;5053316;28;20414;-73
2022/12/11 05:00:45;;;;;;;21.50;20.10;;;2.70;29.70;;;;;;5054274;28;20403;-75
2022/12/11 05:03:11;;;;;;;19.93;18.53;;;2.60;28.80;;;;;;5052847;28;20203;-75
2022/12/11 05:05:37;;;;;;;19.43;18.13;;;2.70;29.00;;;;;;5054262;28;20184;-74
2022/12/11 05:08:02;;;;;;;20.93;19.50;;;2.90;28.60;;;;;;5053992;28;20406;-73
2022/12/11 05:10:29;;;;;;;19.63;18.33;;;3.10;27.60;;;;;;5051599;28;20548;-73
2022/12/11 05:12:54;;;;;;;19.20;17.80;;;2.90;28.20;;;;;;5045918;28;20227;-73
2022/12/11 05:15:20;;;;;;;21.70;20.20;;;2.70;28.20;;;;;;5047855;28;20948;-74
2022/12/11 05:17:45;;;;;;;20.50;19.10;;;2.70;28.90;;;;;;5054039;28;20176;-74
2022/12/11 05:20:11;;;;;;;21.70;20.07;;;2.60;28.40;;;;;;5051928;28;20188;-74
2022/12/11 05:22:37;;;;;;;23.00;21.30;;;2.60;29.10;;;;;;5053436;28;20571;-74
2022/12/11 05:25:04;;;;;;;20.80;19.33;;;3.00;28.80;;;;;;5053224;28;20215;-73
2022/12/11 05:27:30;;;;;;;20.53;19.13;;;2.90;27.50;;;;;;5053363;28;20419;-73
2022/12/11 05:29:55;;;;;;;21.30;19.90;;;2.60;28.70;;;;;;5053411;28;20488;-74
2022/12/11 05:32:21;;;;;;;20.83;19.43;;;2.50;29.40;;;;;;5053479;28;20207;-73
2022/12/11 05:34:46;;;;;;;21.70;20.00;;;2.40;28.90;;;;;;5038294;28;20181;-74
2022/12/11 05:37:12;;;;;;;21.70;20.30;;;2.40;29.70;;;;;;5033887;28;20176;-74
2022/12/11 05:39:38;;;;;;;22.60;21.00;;;2.40;29.00;;;;;;5050778;28;20215;-73
2022/12/11 05:42:03;;;;;;;22.87;21.27;;;2.70;29.10;;;;;;5053503;28;20198;-73
2022/12/11 05:44:29;;;;;;;20.87;19.37;;;3.10;28.20;;;;;;5051526;28;20192;-73
2022/12/11 05:46:55;;;;;;;20.10;18.73;;;3.50;27.10;;;;;;5055819;28;20209;-73
2022/12/11 05:49:21;;;;;;;19.93;18.53;;;3.80;26.50;;;;;;5057397;28;20275;-75
2022/12/11 05:51:46;;;;;;;19.33;18.00;;;4.00;25.80;;;;;;5055097;28;20204;-73
2022/12/11 05:54:12;;;;;;;20.77;19.20;;;4.20;25.30;;;;;;5056931;28;20873;-73
2022/12/11 05:56:37;;;;;;;18.90;17.60;;;4.30;25.00;;;;;;5061424;28;20183;-73
2022/12/11 05:59:05;;;;;;;19.77;18.37;;;4.40;24.80;;;;;;5056150;28;20542;-73
2022/12/11 06:01:34;;;;;;;19.87;18.47;;;4.40;24.70;;;;;;5056393;28;20176;-72
2022/12/11 06:04:00;;;;;;;21.00;19.60;;;4.50;24.80;;;;;;5056971;28;20434;-72
2022/12/11 06:06:27;;;;;;;19.87;18.47;;;4.50;25.70;;;;;;5064801;28;20414;-73
2022/12/11 06:08:54;;;;;;;22.80;21.20;;;4.60;25.30;;;;;;5050078;28;20570;-73
2022/12/11 06:11:22;;;;;;;22.23;20.47;;;4.60;25.00;;;;;;5053705;28;20458;-73
2022/12/11 06:13:48;;;;;;;21.10;19.60;;;4.70;25.00;;;;;;5053618;28;20443;-74
2022/12/11 06:16:14;;;;;;;21.77;20.27;;;4.70;24.80;;;;;;5052475;28;20407;-73
2022/12/11 06:18:41;;;;;;;20.97;19.50;;;4.70;25.00;;;;;;5051607;28;20536;-74
2022/12/11 06:21:15;;;;;;;21.60;20.07;;;4.80;24.90;;;;;;5053627;28;20422;-73
2022/12/11 06:23:41;;;;;;;23.27;21.70;;;4.80;24.90;;;;;;5052107;28;20468;-73
2022/12/11 06:26:08;;;;;;;21.40;19.90;;;4.80;25.10;;;;;;5044009;28;21059;-74
2022/12/11 06:28:34;;;;;;;23.33;21.70;;;4.70;24.70;;;;;;5036417;28;20435;-72
2022/12/11 06:31:00;;;;;;;26.20;24.30;;;4.20;26.50;;;;;;5039186;28;20447;-73
2022/12/11 06:33:26;;;;;;;24.37;22.57;;;4.40;28.40;;;;;;5051144;28;20207;-73
2022/12/11 06:35:51;;;;;;;23.43;21.83;;;4.50;26.60;;;;;;5050864;28;20414;-73
2022/12/11 06:38:17;;;;;;;22.43;20.83;;;4.70;25.90;;;;;;5051314;28;20634;-73
2022/12/11 06:40:45;;;;;;;22.97;21.37;;;4.80;25.50;;;;;;5052269;28;20168;-73
2022/12/11 06:43:10;;;;;;;22.00;20.47;;;4.90;25.00;;;;;;5051443;28;20925;-73
2022/12/11 06:45:37;;;;;;;21.23;19.83;;;4.50;25.10;;;;;;5051829;28;20411;-73
2022/12/11 06:48:03;;;;;;;21.70;20.20;;;4.20;26.40;;;;;;5050762;28;20164;-74
2022/12/11 06:50:29;;;;;;;22.73;21.10;;;4.20;25.80;;;;;;5042633;28;20453;-73
2022/12/11 06:52:58;;;;;;;24.10;22.30;;;3.50;27.40;;;;;;5043955;28;20976;-72
2022/12/11 06:55:23;;;;;;;23.87;22.07;;;3.00;28.20;;;;;;5049906;28;20172;-72
2022/12/11 06:57:49;;;;;;;22.70;21.10;;;2.90;28.80;;;;;;5044119;28;20548;-72
2022/12/11 07:00:15;;;;;;;22.47;20.87;;;2.60;29.30;;;;;;5045162;28;20187;-72
2022/12/11 07:02:40;;;;;;;23.63;21.93;;;2.10;31.10;;;;;;5051608;28;20245;-72
2022/12/11 07:05:07;;;;;;;23.73;22.03;;;2.00;31.40;;;;;;5035479;28;20431;-73
2022/12/11 07:07:33;;;;;;;23.53;21.70;;;1.80;31.90;;;;;;5044896;28;20191;-73
2022/12/11 07:09:59;;;;;;;23.13;21.53;;;1.70;32.00;;;;;;5038384;28;20681;-72
2022/12/11 07:12:24;;;;;;;22.90;21.20;;;1.60;32.70;;;;;;5039945;28;20502;-73
2022/12/11 07:14:50;;;;;;;22.90;20.93;;;1.40;32.50;;;;;;5046882;28;20183;-73
2022/12/11 07:17:15;;;;;;;23.43;21.67;;;1.40;33.00;;;;;;5035709;28;20185;-73
2022/12/11 07:19:41;;;;;;;22.63;20.97;;;1.30;33.20;;;;;;5035972;28;20177;-74
2022/12/11 07:22:06;;;;;;;22.23;20.53;;;1.60;32.70;;;;;;5050340;28;20647;-73
2022/12/11 07:24:32;;;;;;;24.30;22.40;;;1.60;32.90;;;;;;5046081;28;20217;-73
2022/12/11 07:26:58;;;;;;;27.77;24.57;;;1.90;31.90;;;;;;5045692;28;20646;-73
2022/12/11 07:29:23;;;;;;;24.80;23.10;;;2.20;31.20;;;;;;5044529;28;20678;-75
2022/12/11 07:31:49;;;;;;;26.83;24.87;;;2.70;32.20;;;;;;5047284;28;20553;-75
2022/12/11 07:34:15;;;;;;;26.37;24.27;;;3.20;32.30;;;;;;5043453;28;20204;-73
2022/12/11 07:36:42;;;;;;;27.37;25.40;;;3.60;32.00;;;;;;5046571;28;20223;-74
2022/12/11 07:39:10;;;;;;;25.03;23.13;;;4.00;30.60;;;;;;5043042;28;20423;-75
2022/12/11 07:41:36;;;;;;;23.17;21.30;;;4.20;28.30;;;;;;5052115;28;20421;-74
2022/12/11 07:44:02;;;;;;;23.90;22.00;;;4.40;26.60;;;;;;5047447;28;20449;-74
2022/12/11 07:46:30;;;;;;;23.53;21.67;;;4.60;25.60;;;;;;5041129;28;20484;-74
2022/12/11 07:48:55;;;;;;;22.83;21.13;;;4.70;25.20;;;;;;5044329;28;20430;-73
2022/12/11 07:51:26;;;;;;;23.10;21.30;;;4.30;24.70;;;;;;5048095;28;20442;-75
2022/12/11 07:54:01;;;;;;;26.63;21.80;;;3.80;25.80;;;;;;5037817;28;20518;-74
2022/12/11 07:56:28;;;;;;;46.77;25.00;;;3.40;26.20;;;;;;5056279;28;20801;-73
2022/12/11 07:58:53;;;;;;;24.00;22.27;;;3.20;27.00;;;;;;5053372;28;20775;-75
2022/12/11 08:01:21;;;;;;;23.10;21.50;;;3.10;27.60;;;;;;5050552;28;20414;-75
2022/12/11 08:03:48;;;;;;;23.87;22.17;;;3.20;28.20;;;;;;5056033;28;20211;-74
2022/12/11 08:06:14;;;;;;;23.37;21.77;;;3.10;27.60;;;;;;5045236;28;20423;-74
2022/12/11 08:08:40;;;;;;;21.10;19.63;;;3.10;27.60;;;;;;5046766;28;20428;-74
2022/12/11 08:11:10;;;;;;;22.60;20.67;;;2.90;27.50;;;;;;5041442;28;20860;-74
2022/12/11 08:13:36;;;;;;;21.13;19.53;;;2.80;27.10;;;;;;5038809;28;21027;-74
2022/12/11 08:16:07;;;;;;;22.10;20.50;;;2.70;27.90;;;;;;5033719;28;20408;-75
2022/12/11 08:18:34;;;;;;;22.70;20.87;;;2.50;27.90;;;;;;5035580;28;20929;-75
2022/12/11 08:21:08;;;;;;;21.93;20.50;;;2.40;28.40;;;;;;5055651;28;20414;-76
2022/12/11 08:23:34;;;;;;;21.63;20.07;;;2.40;28.60;;;;;;5045419;28;20469;-77
2022/12/11 08:26:04;;;;;;;23.83;22.13;;;2.30;29.10;;;;;;5052455;28;20449;-78
2022/12/11 08:28:31;;;;;;;22.60;20.80;;;2.60;28.90;;;;;;5049163;28;20423;-77
2022/12/11 08:31:02;;;;;;;20.63;19.23;;;3.10;28.60;;;;;;5039705;28;20451;-75
2022/12/11 08:33:29;;;;;;;20.73;19.23;;;3.50;27.70;;;;;;5038569;28;20467;-77
2022/12/11 08:35:55;;;;;;;21.10;19.50;;;3.90;26.30;;;;;;5030451;28;20419;-77
2022/12/11 08:38:20;;;;;;;22.10;20.50;;;4.30;24.80;;;;;;5051261;28;20425;-78
2022/12/11 08:40:46;;;;;;;21.27;19.67;;;4.20;25.00;;;;;;5052027;28;20267;-77
2022/12/11 08:43:12;;;;;;;23.50;21.70;;;4.20;25.20;;;;;;5049394;28;20675;-76
2022/12/11 08:45:38;;;;;;;21.50;19.90;;;4.10;25.70;;;;;;5047750;28;20690;-77
2022/12/11 08:48:04;;;;;;;21.23;19.60;;;4.10;25.50;;;;;;5038660;28;20177;-76
2022/12/11 08:50:29;;;;;;;20.97;19.43;;;4.10;26.30;;;;;;5035877;28;20411;-76
2022/12/11 08:52:55;;;;;;;22.10;20.60;;;4.00;25.80;;;;;;5036836;28;20470;-76
2022/12/11 08:55:21;;;;;;;23.87;21.97;;;3.90;26.10;;;;;;5035474;28;20181;-77
2022/12/11 08:57:46;;;;;;;20.77;19.17;;;3.90;26.80;;;;;;5040806;28;20176;-77
2022/12/11 09:00:14;;;;;;;21.10;19.60;;;4.20;25.70;;;;;;5047783;28;20183;-77
2022/12/11 09:02:39;;;;;;;21.87;20.27;;;4.50;25.10;;;;;;5047911;28;20729;-77
2022/12/11 09:05:06;;;;;;;21.63;20.03;;;4.80;24.60;;;;;;5052552;28;21074;-75
2022/12/11 09:07:36;;;;;;;20.20;18.80;;;4.50;24.90;;;;;;5054750;28;20189;-77
2022/12/11 09:10:04;;;;;;;21.27;19.70;;;4.40;25.60;;;;;;5052214;28;20442;-77
2022/12/11 09:12:30;;;;;;;21.60;20.13;;;4.00;26.10;;;;;;5052146;28;20815;-76
2022/12/11 09:14:55;;;;;;;21.27;19.73;;;3.80;27.10;;;;;;5053436;28;20426;-76
2022/12/11 09:17:21;;;;;;;22.00;20.13;;;3.60;27.20;;;;;;5052036;28;20165;-76
2022/12/11 09:19:47;;;;;;;21.77;20.03;;;3.60;27.40;;;;;;5051840;28;20255;-76
2022/12/11 09:22:12;;;;;;;23.40;21.60;;;3.70;26.80;;;;;;5051782;28;20172;-77
2022/12/11 09:24:38;;;;;;;23.50;21.80;;;3.60;27.60;;;;;;5051719;28;20172;-76
2022/12/11 09:27:04;;;;;;;24.00;22.20;;;3.60;27.90;;;;;;5050966;28;20180;-75
2022/12/11 09:29:30;;;;;;;24.73;22.80;;;3.80;27.40;;;;;;5050275;28;20860;-75
2022/12/11 09:31:56;;;;;;;23.67;21.87;;;3.90;26.90;;;;;;5052881;28;20466;-75
2022/12/11 09:34:21;;;;;;;24.50;22.60;;;3.90;27.00;;;;;;5054212;28;20196;-76
2022/12/11 09:36:47;;;;;;;21.37;19.87;;;4.20;26.60;;;;;;5054013;28;20567;-76
2022/12/11 09:39:14;;;;;;;22.27;20.67;;;4.30;26.20;;;;;;5053906;28;20175;-76
2022/12/11 09:42:04;;;;;;;23.17;21.33;;;4.20;26.10;;;;;;5052370;28;20698;-76
2022/12/11 09:44:44;;;;;;;23.77;22.07;;;4.20;26.20;;;;;;5052799;28;20815;-76
2022/12/11 09:47:43;;;;;;;22.17;20.53;;;4.10;25.70;;;;;;5053660;28;20452;-76
2022/12/11 09:50:09;;;;;;;23.10;21.37;;;3.70;27.00;;;;;;5050388;28;20418;-75
2022/12/11 09:52:37;;;;;;;24.17;21.80;;;3.50;27.30;;;;;;5051792;28;20878;-76
2022/12/11 09:55:15;;;;;;;22.00;20.47;;;3.60;27.30;;;;;;5053183;28;20165;-77
2022/12/11 09:57:56;;;;;;;22.03;20.07;;;3.90;26.70;;;;;;5053377;28;20916;-75
2022/12/11 10:00:31;;;;;;;19.10;17.80;;;4.10;26.20;;;;;;5053144;28;20429;-76
2022/12/11 10:03:18;;;;;;;19.80;18.20;;;4.10;25.30;;;;;;5051645;28;20438;-76
2022/12/11 10:06:09;;;;;;;21.83;20.30;;;4.20;25.40;;;;;;5053085;28;20502;-76
2022/12/11 10:08:52;;;;;;;20.67;19.17;;;4.10;25.50;;;;;;5052747;28;20469;-75
2022/12/11 10:11:33;;;;;;;20.40;19.00;;;4.10;25.30;;;;;;5052451;28;20464;-76
2022/12/11 10:14:22;;;;;;;20.63;18.83;;;4.30;24.60;;;;;;5052258;28;20480;-76
2022/12/11 10:16:53;;;;;;;19.63;18.13;;;4.30;24.60;;;;;;5052481;28;20407;-77
2022/12/11 10:19:22;;;;;;;20.90;19.40;;;4.40;24.50;;;;;;5052610;28;20410;-77
2022/12/11 10:21:50;;;;;;;21.87;20.27;;;4.30;24.90;;;;;;5050541;28;20464;-76
2022/12/11 10:24:40;;;;;;;21.67;19.80;;;4.20;24.30;;;;;;5050986;28;20457;-77
2022/12/11 10:27:18;;;;;;;21.77;20.17;;;4.30;24.60;;;;;;5046906;28;20792;-76
2022/12/11 10:29:45;;;;;;;19.80;18.37;;;4.20;25.30;;;;;;5042495;28;20486;-77
2022/12/11 10:32:22;;;;;;;20.83;19.23;;;4.20;25.10;;;;;;5036518;28;20458;-76
2022/12/11 10:34:53;;;;;;;20.37;19.03;;;4.20;24.80;;;;;;5050555;28;20796;-77
2022/12/11 10:37:18;;;;;;;19.90;18.47;;;4.30;24.60;;;;;;5032448;28;20430;-78
2022/12/11 10:39:44;;;;;;;18.37;17.03;;;4.40;24.70;;;;;;5053360;28;20406;-80
2022/12/11 10:42:17;;;;;;;19.23;17.87;;;4.70;24.30;;;;;;5054430;28;20219;-80
2022/12/11 10:45:04;;;;;;;20.77;19.00;;;4.60;23.40;;;;;;5046171;28;20279;-79
2022/12/11 10:47:30;;;;;;;19.63;18.13;;;4.40;24.30;;;;;;5047221;28;20427;-78
2022/12/11 10:50:00;;;;;;;21.07;19.47;;;4.40;24.70;;;;;;5050944;28;20437;-78
2022/12/11 10:52:37;;;;;;;20.07;18.67;;;4.80;23.60;;;;;;5048657;28;20658;-78
2022/12/11 10:55:43;;;;;;;18.97;17.50;;;5.10;23.30;;;;;;5052772;28;20413;-78
2022/12/11 10:58:24;;;;;;;18.90;17.47;;;5.40;22.70;;;;;;5043501;28;20410;-78
2022/12/11 11:01:21;;;;;;;18.63;17.13;;;5.50;22.20;;;;;;5037549;28;20416;-79
2022/12/11 11:04:05;;;;;;;19.57;18.17;;;5.70;22.10;;;;;;5046710;28;21009;-78
2022/12/11 11:06:32;;;;;;;20.30;18.80;;;5.80;21.60;;;;;;5045040;28;20423;-77
2022/12/11 11:09:00;;;;;;;22.57;20.80;;;5.90;21.30;;;;;;5039680;28;20445;-76
2022/12/11 11:11:31;;;;;;;23.10;21.23;;;5.80;22.40;;;;;;5043237;28;20463;-77
2022/12/11 11:14:23;;;;;;;26.37;24.37;;;5.50;24.00;;;;;;5049289;28;20455;-76
2022/12/11 11:16:51;;;;;;;24.87;22.87;;;5.20;25.50;;;;;;5046339;28;20436;-77
2022/12/11 11:19:19;;;;;;;26.27;24.17;;;5.20;25.90;;;;;;5042782;28;20423;-76
2022/12/11 11:21:53;;;;;;;24.47;22.57;;;5.00;26.60;;;;;;5048794;28;21417;-78
2022/12/11 11:24:37;;;;;;;25.77;23.97;;;4.70;27.00;;;;;;5050008;28;20449;-79
2022/12/11 11:27:29;;;;;;;24.23;22.43;;;4.60;27.40;;;;;;5058679;28;20427;-77
2022/12/11 11:29:58;;;;;;;24.70;22.80;;;4.60;27.00;;;;;;5069564;28;20509;-77
2022/12/11 11:32:32;;;;;;;24.43;22.63;;;4.70;27.50;;;;;;5074288;28;20462;-77
2022/12/11 11:35:10;;;;;;;24.13;22.20;;;5.00;26.60;;;;;;5072302;28;20410;-76
2022/12/11 11:37:37;;;;;;;23.50;21.50;;;5.00;26.60;;;;;;5065590;28;20514;-77
2022/12/11 11:40:29;;;;;;;25.10;23.10;;;4.70;27.00;;;;;;5050474;28;20865;-76
2022/12/11 11:43:17;;;;;;;24.37;22.50;;;4.90;26.90;;;;;;5032433;28;20439;-77
2022/12/11 11:46:12;;;;;;;24.83;22.97;;;4.80;26.50;;;;;;5041510;28;20429;-76
2022/12/11 11:48:47;;;;;;;24.40;22.60;;;4.90;27.00;;;;;;5041456;28;20414;-78
2022/12/11 11:51:14;;;;;;;25.17;23.17;;;5.20;26.10;;;;;;5046662;28;20413;-77
2022/12/11 11:53:42;;;;;;;25.13;23.43;;;5.10;25.50;;;;;;5044344;28;20450;-77
2022/12/11 11:56:26;;;;;;;24.80;23.00;;;5.30;25.90;;;;;;5040677;28;20420;-79
2022/12/11 11:58:58;;;;;;;22.87;21.27;;;5.40;25.10;;;;;;5039482;28;20428;-78
2022/12/11 12:01:24;;;;;;;22.23;20.63;;;5.70;24.30;;;;;;5052815;28;20756;-76
2022/12/11 12:03:51;;;;;;;21.90;20.30;;;5.90;23.60;;;;;;5052164;28;21009;-77
2022/12/11 12:06:47;;;;;;;24.13;22.23;;;6.00;23.30;;;;;;5053672;28;20413;-78
2022/12/11 12:09:21;;;;;;;22.60;21.00;;;6.00;23.10;;;;;;5057240;28;20410;-77
2022/12/11 12:12:02;;;;;;;21.90;20.30;;;6.00;23.30;;;;;;5057461;28;20457;-77
2022/12/11 12:14:45;;;;;;;22.23;20.43;;;6.10;23.10;;;;;;5057810;28;20518;-76
2022/12/11 12:17:22;;;;;;;23.13;21.43;;;6.10;23.20;;;;;;5056798;28;20410;-77
2022/12/11 12:20:02;;;;;;;24.80;23.00;;;5.60;25.10;;;;;;5056428;28;20936;-78
2022/12/11 12:22:58;;;;;;;23.83;22.17;;;5.20;26.10;;;;;;5053234;28;20421;-77
2022/12/11 12:26:00;;;;;;;24.17;22.37;;;4.80;27.70;;;;;;5037683;28;20419;-77
2022/12/11 12:29:01;;;;;;;23.83;22.07;;;4.30;28.40;;;;;;5036046;28;20517;-77
2022/12/11 12:31:45;;;;;;;25.50;23.40;;;4.40;27.90;;;;;;5046985;28;20442;-73
2022/12/11 12:34:36;;;;;;;24.10;22.37;;;4.70;28.70;;;;;;5044376;28;20442;-75
2022/12/11 12:37:24;;;;;;;25.07;23.17;;;4.80;27.80;;;;;;5048226;28;20410;-75
2022/12/11 12:40:00;;;;;;;26.10;23.97;;;4.70;28.80;;;;;;5054787;28;20937;-75
2022/12/11 12:42:53;;;;;;;27.20;25.30;;;4.70;28.30;;;;;;5041942;28;20772;-74
2022/12/11 12:45:33;;;;;;;25.87;23.97;;;4.70;28.60;;;;;;5033547;28;20474;-74
2022/12/11 12:47:58;;;;;;;27.57;25.33;;;4.70;29.10;;;;;;5040140;28;20454;-75
2022/12/11 12:50:28;;;;;;;25.33;23.47;;;4.60;28.60;;;;;;5045410;28;20438;-75
2022/12/11 12:52:55;;;;;;;24.50;22.50;;;4.80;28.40;;;;;;5053758;28;20219;-76
2022/12/11 12:55:21;;;;;;;26.20;24.20;;;5.10;27.30;;;;;;5054339;28;20472;-75
2022/12/11 12:58:03;;;;;;;26.53;24.30;;;5.40;26.60;;;;;;5053608;28;20419;-78
2022/12/11 13:00:34;;;;;;;27.77;25.67;;;5.50;26.70;;;;;;5047231;28;20414;-76